sensor_id;sensor_type;location;lat;lon;timestamp;pressure;altitude;pressure_sealevel;temperature;humidity
57050;BME280;42935;50.966;16.992;2023-04-27T00:01:49;101780.64;;;2.11;98.76
57050;BME280;42935;50.966;16.992;2023-04-27T00:05:14;101780.54;;;2.18;97.53
57050;BME280;42935;50.966;16.992;2023-04-27T00:12:35;101772.29;;;2.12;97.32
57050;BME280;42935;50.966;16.992;2023-04-27T00:15:54;101762.59;;;2.13;96.51
57050;BME280;42935;50.966;16.992;2023-04-27T00:19:21;101767.10;;;2.08;96.91
57050;BME280;42935;50.966;16.992;2023-04-27T00:22:40;101769.06;;;2.04;97.72
57050;BME280;42935;50.966;16.992;2023-04-27T00:26:01;101764.22;;;2.03;97.92
57050;BME280;42935;50.966;16.992;2023-04-27T00:29:22;101767.17;;;2.00;98.15
57050;BME280;42935;50.966;16.992;2023-04-27T00:32:41;101762.73;;;1.88;99.25
57050;BME280;42935;50.966;16.992;2023-04-27T00:36:02;101755.05;;;1.74;100.00
57050;BME280;42935;50.966;16.992;2023-04-27T00:39:21;101776.13;;;1.81;100.00
57050;BME280;42935;50.966;16.992;2023-04-27T00:42:41;101781.21;;;1.79;100.00
57050;BME280;42935;50.966;16.992;2023-04-27T00:46:01;101765.79;;;1.63;100.00
57050;BME280;42935;50.966;16.992;2023-04-27T00:49:23;101782.00;;;1.70;100.00
57050;BME280;42935;50.966;16.992;2023-04-27T00:52:41;101774.34;;;1.67;100.00
57050;BME280;42935;50.966;16.992;2023-04-27T00:55:56;101782.36;;;1.60;100.00
57050;BME280;42935;50.966;16.992;2023-04-27T00:59:17;101782.32;;;1.53;100.00
57050;BME280;42935;50.966;16.992;2023-04-27T01:02:38;101769.12;;;1.49;100.00
57050;BME280;42935;50.966;16.992;2023-04-27T01:06:02;101779.22;;;1.51;100.00
57050;BME280;42935;50.966;16.992;2023-04-27T01:09:30;101777.56;;;1.56;100.00
57050;BME280;42935;50.966;16.992;2023-04-27T01:13:23;101778.18;;;1.52;100.00
57050;BME280;42935;50.966;16.992;2023-04-27T01:16:36;101766.18;;;1.51;100.00
57050;BME280;42935;50.966;16.992;2023-04-27T01:19:57;101777.17;;;1.52;100.00
57050;BME280;42935;50.966;16.992;2023-04-27T01:23:54;101776.74;;;1.55;100.00
57050;BME280;42935;50.966;16.992;2023-04-27T01:27:13;101772.29;;;1.46;100.00
57050;BME280;42935;50.966;16.992;2023-04-27T01:30:43;101779.11;;;1.47;100.00
57050;BME280;42935;50.966;16.992;2023-04-27T01:34:04;101782.28;;;1.47;100.00
57050;BME280;42935;50.966;16.992;2023-04-27T01:37:23;101774.91;;;1.43;100.00
57050;BME280;42935;50.966;16.992;2023-04-27T01:40:45;101777.70;;;1.39;100.00
57050;BME280;42935;50.966;16.992;2023-04-27T01:44:04;101783.70;;;1.46;100.00
57050;BME280;42935;50.966;16.992;2023-04-27T01:47:25;101781.05;;;1.37;100.00
57050;BME280;42935;50.966;16.992;2023-04-27T01:50:47;101789.48;;;1.39;100.00
57050;BME280;42935;50.966;16.992;2023-04-27T01:54:07;101790.49;;;1.34;100.00
57050;BME280;42935;50.966;16.992;2023-04-27T01:57:27;101791.95;;;1.25;100.00
57050;BME280;42935;50.966;16.992;2023-04-27T02:00:47;101792.13;;;1.21;100.00
57050;BME280;42935;50.966;16.992;2023-04-27T02:04:06;101794.36;;;1.29;100.00
57050;BME280;42935;50.966;16.992;2023-04-27T02:07:24;101793.07;;;1.31;100.00
57050;BME280;42935;50.966;16.992;2023-04-27T02:10:48;101779.57;;;1.17;100.00
57050;BME280;42935;50.966;16.992;2023-04-27T02:14:08;101784.80;;;1.12;100.00
57050;BME280;42935;50.966;16.992;2023-04-27T02:17:28;101794.50;;;1.21;100.00
57050;BME280;42935;50.966;16.992;2023-04-27T02:20:50;101797.90;;;1.18;100.00
57050;BME280;42935;50.966;16.992;2023-04-27T02:24:10;101796.16;;;1.22;100.00
57050;BME280;42935;50.966;16.992;2023-04-27T02:28:04;101800.20;;;1.18;100.00
57050;BME280;42935;50.966;16.992;2023-04-27T02:31:23;101802.02;;;1.12;100.00
57050;BME280;42935;50.966;16.992;2023-04-27T02:34:43;101807.41;;;1.12;100.00
57050;BME280;42935;50.966;16.992;2023-04-27T02:38:34;101800.33;;;0.95;100.00
57050;BME280;42935;50.966;16.992;2023-04-27T02:41:55;101788.06;;;0.86;100.00
57050;BME280;42935;50.966;16.992;2023-04-27T02:45:17;101801.85;;;0.87;100.00
57050;BME280;42935;50.966;16.992;2023-04-27T02:48:35;101807.75;;;0.93;100.00
57050;BME280;42935;50.966;16.992;2023-04-27T02:51:56;101796.77;;;0.78;100.00
57050;BME280;42935;50.966;16.992;2023-04-27T02:55:13;101811.41;;;0.88;100.00
57050;BME280;42935;50.966;16.992;2023-04-27T02:58:33;101809.72;;;0.89;100.00
57050;BME280;42935;50.966;16.992;2023-04-27T03:01:50;101809.26;;;0.86;100.00
57050;BME280;42935;50.966;16.992;2023-04-27T03:05:20;101794.73;;;0.75;100.00
57050;BME280;42935;50.966;16.992;2023-04-27T03:08:40;101816.18;;;0.79;100.00
57050;BME280;42935;50.966;16.992;2023-04-27T03:12:00;101816.26;;;0.77;100.00
57050;BME280;42935;50.966;16.992;2023-04-27T03:15:18;101816.77;;;0.76;100.00
57050;BME280;42935;50.966;16.992;2023-04-27T03:19:06;101808.69;;;0.73;100.00
57050;BME280;42935;50.966;16.992;2023-04-27T03:22:25;101801.73;;;0.68;100.00
57050;BME280;42935;50.966;16.992;2023-04-27T03:25:42;101818.52;;;0.80;100.00
57050;BME280;42935;50.966;16.992;2023-04-27T03:28:59;101811.30;;;0.78;100.00
57050;BME280;42935;50.966;16.992;2023-04-27T03:32:19;101819.16;;;0.82;100.00
57050;BME280;42935;50.966;16.992;2023-04-27T03:36:08;101804.16;;;0.71;100.00
57050;BME280;42935;50.966;16.992;2023-04-27T03:39:27;101813.06;;;0.69;100.00
57050;BME280;42935;50.966;16.992;2023-04-27T03:42:42;101824.84;;;0.79;100.00
57050;BME280;42935;50.966;16.992;2023-04-27T03:45:59;101827.88;;;0.72;100.00
57050;BME280;42935;50.966;16.992;2023-04-27T03:49:20;101805.91;;;0.58;100.00
57050;BME280;42935;50.966;16.992;2023-04-27T03:52:41;101836.56;;;0.80;100.00
57050;BME280;42935;50.966;16.992;2023-04-27T03:56:01;101840.27;;;0.85;100.00
57050;BME280;42935;50.966;16.992;2023-04-27T03:59:52;101842.84;;;0.90;100.00
57050;BME280;42935;50.966;16.992;2023-04-27T04:03:14;101846.27;;;0.94;100.00
57050;BME280;42935;50.966;16.992;2023-04-27T04:06:34;101852.11;;;0.99;100.00
57050;BME280;42935;50.966;16.992;2023-04-27T04:09:53;101852.91;;;1.04;100.00
57050;BME280;42935;50.966;16.992;2023-04-27T04:13:16;101853.85;;;1.04;100.00
57050;BME280;42935;50.966;16.992;2023-04-27T04:16:36;101857.35;;;1.09;100.00
57050;BME280;42935;50.966;16.992;2023-04-27T04:19:55;101859.14;;;1.13;100.00
57050;BME280;42935;50.966;16.992;2023-04-27T04:23:13;101860.29;;;1.24;100.00
57050;BME280;42935;50.966;16.992;2023-04-27T04:26:33;101867.19;;;1.30;100.00
57050;BME280;42935;50.966;16.992;2023-04-27T04:29:53;101868.71;;;1.36;100.00
57050;BME280;42935;50.966;16.992;2023-04-27T04:33:13;101864.63;;;1.43;100.00
57050;BME280;42935;50.966;16.992;2023-04-27T04:36:32;101875.77;;;1.60;100.00
57050;BME280;42935;50.966;16.992;2023-04-27T04:39:50;101878.94;;;1.74;100.00
57050;BME280;42935;50.966;16.992;2023-04-27T04:43:12;101873.29;;;1.83;100.00
57050;BME280;42935;50.966;16.992;2023-04-27T04:46:34;101883.89;;;1.95;100.00
57050;BME280;42935;50.966;16.992;2023-04-27T04:49:55;101883.17;;;2.02;100.00
57050;BME280;42935;50.966;16.992;2023-04-27T04:53:13;101878.46;;;1.98;100.00
57050;BME280;42935;50.966;16.992;2023-04-27T04:57:01;101888.19;;;2.13;100.00
57050;BME280;42935;50.966;16.992;2023-04-27T05:00:21;101892.38;;;2.27;100.00
57050;BME280;42935;50.966;16.992;2023-04-27T05:03:42;101891.59;;;2.42;99.90
57050;BME280;42935;50.966;16.992;2023-04-27T05:07:32;101886.00;;;2.56;96.60
57050;BME280;42935;50.966;16.992;2023-04-27T05:10:53;101896.02;;;2.74;96.58
57050;BME280;42935;50.966;16.992;2023-04-27T05:14:43;101897.21;;;2.90;95.54
57050;BME280;42935;50.966;16.992;2023-04-27T05:17:58;101902.32;;;3.01;93.41
57050;BME280;42935;50.966;16.992;2023-04-27T05:21:17;101906.14;;;3.06;93.10
57050;BME280;42935;50.966;16.992;2023-04-27T05:24:34;101905.54;;;3.12;91.40
57050;BME280;42935;50.966;16.992;2023-04-27T05:27:58;101905.05;;;3.19;89.92
57050;BME280;42935;50.966;16.992;2023-04-27T05:31:15;101900.47;;;3.38;89.23
57050;BME280;42935;50.966;16.992;2023-04-27T05:35:06;101893.39;;;3.54;88.56
57050;BME280;42935;50.966;16.992;2023-04-27T05:38:23;101903.52;;;3.66;87.11
57050;BME280;42935;50.966;16.992;2023-04-27T05:41:47;101904.52;;;3.95;85.80
57050;BME280;42935;50.966;16.992;2023-04-27T05:45:05;101905.35;;;4.06;83.02
57050;BME280;42935;50.966;16.992;2023-04-27T05:48:24;101910.77;;;4.21;83.80
57050;BME280;42935;50.966;16.992;2023-04-27T05:51:44;101903.32;;;4.30;84.25
57050;BME280;42935;50.966;16.992;2023-04-27T05:55:09;101913.98;;;4.36;81.83
57050;BME280;42935;50.966;16.992;2023-04-27T05:58:27;101918.54;;;4.56;82.30
57050;BME280;42935;50.966;16.992;2023-04-27T06:01:46;101921.01;;;4.66;80.97
57050;BME280;42935;50.966;16.992;2023-04-27T06:05:06;101923.52;;;4.66;82.12
57050;BME280;42935;50.966;16.992;2023-04-27T06:08:24;101917.02;;;4.72;81.99
57050;BME280;42935;50.966;16.992;2023-04-27T06:11:44;101916.68;;;4.74;80.63
57050;BME280;42935;50.966;16.992;2023-04-27T06:15:02;101920.54;;;4.91;81.02
57050;BME280;42935;50.966;16.992;2023-04-27T06:18:24;101917.84;;;5.04;80.70
57050;BME280;42935;50.966;16.992;2023-04-27T06:21:39;101925.60;;;4.97;80.01
57050;BME280;42935;50.966;16.992;2023-04-27T06:24:57;101925.74;;;4.93;79.64
57050;BME280;42935;50.966;16.992;2023-04-27T06:28:21;101927.70;;;5.07;77.97
57050;BME280;42935;50.966;16.992;2023-04-27T06:31:41;101930.28;;;5.24;77.35
57050;BME280;42935;50.966;16.992;2023-04-27T06:35:01;101929.66;;;5.36;75.39
57050;BME280;42935;50.966;16.992;2023-04-27T06:38:22;101930.17;;;5.47;75.24
57050;BME280;42935;50.966;16.992;2023-04-27T06:41:47;101923.10;;;5.58;74.82
57050;BME280;42935;50.966;16.992;2023-04-27T06:45:02;101932.15;;;5.75;75.18
57050;BME280;42935;50.966;16.992;2023-04-27T06:48:23;101928.39;;;5.97;75.15
57050;BME280;42935;50.966;16.992;2023-04-27T06:51:42;101916.16;;;6.00;75.36
57050;BME280;42935;50.966;16.992;2023-04-27T06:55:36;101914.80;;;6.16;75.51
57050;BME280;42935;50.966;16.992;2023-04-27T06:58:57;101912.48;;;6.12;74.30
57050;BME280;42935;50.966;16.992;2023-04-27T07:02:17;101909.13;;;6.54;74.49
57050;BME280;42935;50.966;16.992;2023-04-27T07:05:38;101913.45;;;6.52;72.75
57050;BME280;42935;50.966;16.992;2023-04-27T07:08:57;101917.78;;;6.47;71.87
57050;BME280;42935;50.966;16.992;2023-04-27T07:12:14;101913.73;;;6.48;71.81
57050;BME280;42935;50.966;16.992;2023-04-27T07:15:37;101900.61;;;6.42;71.88
57050;BME280;42935;50.966;16.992;2023-04-27T07:19:26;101918.34;;;6.66;72.96
57050;BME280;42935;50.966;16.992;2023-04-27T07:22:45;101914.75;;;6.99;72.37
57050;BME280;42935;50.966;16.992;2023-04-27T07:26:06;101907.81;;;6.92;70.85
57050;BME280;42935;50.966;16.992;2023-04-27T07:29:24;101911.23;;;7.32;71.35
57050;BME280;42935;50.966;16.992;2023-04-27T07:32:46;101914.42;;;7.44;69.95
57050;BME280;42935;50.966;16.992;2023-04-27T07:36:19;101910.25;;;7.55;68.52
57050;BME280;42935;50.966;16.992;2023-04-27T07:39:39;101915.99;;;7.49;68.35
57050;BME280;42935;50.966;16.992;2023-04-27T07:42:59;101906.63;;;7.35;68.00
57050;BME280;42935;50.966;16.992;2023-04-27T07:46:21;101913.87;;;7.34;68.74
57050;BME280;42935;50.966;16.992;2023-04-27T07:50:12;101916.05;;;7.39;67.45
57050;BME280;42935;50.966;16.992;2023-04-27T07:53:44;101905.15;;;7.51;65.89
57050;BME280;42935;50.966;16.992;2023-04-27T07:57:34;101905.37;;;7.63;65.07
57050;BME280;42935;50.966;16.992;2023-04-27T08:00:53;101910.46;;;7.98;65.95
57050;BME280;42935;50.966;16.992;2023-04-27T08:04:13;101908.57;;;8.35;64.71
57050;BME280;42935;50.966;16.992;2023-04-27T08:07:33;101913.46;;;8.40;64.07
57050;BME280;42935;50.966;16.992;2023-04-27T08:10:53;101900.24;;;8.49;64.40
57050;BME280;42935;50.966;16.992;2023-04-27T08:14:09;101911.62;;;8.67;63.85
57050;BME280;42935;50.966;16.992;2023-04-27T08:17:31;101917.09;;;8.46;64.79
57050;BME280;42935;50.966;16.992;2023-04-27T08:20:53;101911.22;;;9.07;64.54
57050;BME280;42935;50.966;16.992;2023-04-27T08:24:13;101912.70;;;9.29;63.45
57050;BME280;42935;50.966;16.992;2023-04-27T08:27:39;101907.33;;;9.42;62.55
57050;BME280;42935;50.966;16.992;2023-04-27T08:30:58;101923.94;;;8.81;61.21
57050;BME280;42935;50.966;16.992;2023-04-27T08:34:14;101909.10;;;8.38;61.21
57050;BME280;42935;50.966;16.992;2023-04-27T08:37:34;101916.80;;;8.47;61.65
57050;BME280;42935;50.966;16.992;2023-04-27T08:40:51;101913.98;;;9.18;62.79
57050;BME280;42935;50.966;16.992;2023-04-27T08:44:43;101923.41;;;9.11;60.89
57050;BME280;42935;50.966;16.992;2023-04-27T08:48:09;101920.95;;;9.17;60.21
57050;BME280;42935;50.966;16.992;2023-04-27T08:51:28;101914.98;;;9.66;60.07
57050;BME280;42935;50.966;16.992;2023-04-27T08:54:49;101918.13;;;9.93;59.18
57050;BME280;42935;50.966;16.992;2023-04-27T08:58:09;101906.21;;;10.00;57.78
57050;BME280;42935;50.966;16.992;2023-04-27T09:01:29;101930.70;;;9.52;58.62
57050;BME280;42935;50.966;16.992;2023-04-27T09:04:48;101925.15;;;9.65;58.99
57050;BME280;42935;50.966;16.992;2023-04-27T09:08:09;101925.45;;;9.44;59.24
57050;BME280;42935;50.966;16.992;2023-04-27T09:11:31;101919.34;;;9.50;60.25
57050;BME280;42935;50.966;16.992;2023-04-27T09:15:01;101919.61;;;9.20;60.45
57050;BME280;42935;50.966;16.992;2023-04-27T09:18:24;101923.03;;;8.46;59.53
57050;BME280;42935;50.966;16.992;2023-04-27T09:21:44;101929.45;;;8.72;60.83
57050;BME280;42935;50.966;16.992;2023-04-27T09:28:48;101924.33;;;8.71;60.64
57050;BME280;42935;50.966;16.992;2023-04-27T09:32:14;101915.86;;;8.64;61.20
57050;BME280;42935;50.966;16.992;2023-04-27T09:35:35;101918.22;;;8.53;61.27
57050;BME280;42935;50.966;16.992;2023-04-27T09:38:55;101920.85;;;8.59;61.50
57050;BME280;42935;50.966;16.992;2023-04-27T09:42:15;101922.41;;;9.13;59.92
57050;BME280;42935;50.966;16.992;2023-04-27T09:45:39;101909.06;;;9.11;60.12
57050;BME280;42935;50.966;16.992;2023-04-27T09:49:03;101919.39;;;9.77;60.32
57050;BME280;42935;50.966;16.992;2023-04-27T09:52:24;101914.28;;;9.63;58.64
57050;BME280;42935;50.966;16.992;2023-04-27T09:56:25;101915.36;;;10.00;58.31
57050;BME280;42935;50.966;16.992;2023-04-27T10:10:26;101924.88;;;9.52;58.85
57050;BME280;42935;50.966;16.992;2023-04-27T10:13:52;101933.89;;;9.05;59.40
57050;BME280;42935;50.966;16.992;2023-04-27T10:17:11;101936.09;;;8.56;59.50
57050;BME280;42935;50.966;16.992;2023-04-27T10:20:34;101946.27;;;8.69;61.34
57050;BME280;42935;50.966;16.992;2023-04-27T10:23:54;101947.78;;;7.85;65.24
57050;BME280;42935;50.966;16.992;2023-04-27T10:27:17;101945.41;;;7.89;67.82
57050;BME280;42935;50.966;16.992;2023-04-27T10:30:44;101940.43;;;7.51;70.46
57050;BME280;42935;50.966;16.992;2023-04-27T10:34:08;101946.27;;;7.89;71.86
57050;BME280;42935;50.966;16.992;2023-04-27T10:41:02;101939.10;;;8.53;66.57
57050;BME280;42935;50.966;16.992;2023-04-27T10:44:28;101939.02;;;8.72;66.98
57050;BME280;42935;50.966;16.992;2023-04-27T10:47:58;101928.52;;;8.98;65.25
57050;BME280;42935;50.966;16.992;2023-04-27T10:51:15;101932.04;;;8.68;64.30
57050;BME280;42935;50.966;16.992;2023-04-27T10:54:33;101921.91;;;8.53;63.42
57050;BME280;42935;50.966;16.992;2023-04-27T10:57:55;101930.70;;;8.71;63.12
57050;BME280;42935;50.966;16.992;2023-04-27T11:04:45;101933.77;;;9.30;60.26
57050;BME280;42935;50.966;16.992;2023-04-27T11:08:10;101933.12;;;9.69;59.65
57050;BME280;42935;50.966;16.992;2023-04-27T11:11:30;101929.27;;;9.86;58.93
57050;BME280;42935;50.966;16.992;2023-04-27T11:14:49;101906.40;;;10.52;60.67
57050;BME280;42935;50.966;16.992;2023-04-27T11:18:14;101915.40;;;11.42;59.25
57050;BME280;42935;50.966;16.992;2023-04-27T11:21:34;101891.80;;;12.02;57.66
57050;BME280;42935;50.966;16.992;2023-04-27T11:24:57;101909.44;;;12.40;56.39
57050;BME280;42935;50.966;16.992;2023-04-27T11:28:19;101915.90;;;11.49;52.41
57050;BME280;42935;50.966;16.992;2023-04-27T11:31:42;101922.07;;;10.72;51.20
57050;BME280;42935;50.966;16.992;2023-04-27T11:35:08;101911.37;;;10.19;49.49
57050;BME280;42935;50.966;16.992;2023-04-27T11:38:33;101923.82;;;10.43;48.11
57050;BME280;42935;50.966;16.992;2023-04-27T11:41:54;101926.95;;;10.61;49.66
57050;BME280;42935;50.966;16.992;2023-04-27T11:45:16;101917.59;;;9.82;48.20
57050;BME280;42935;50.966;16.992;2023-04-27T11:48:36;101927.91;;;10.20;48.56
57050;BME280;42935;50.966;16.992;2023-04-27T11:52:31;101921.84;;;10.89;49.94
57050;BME280;42935;50.966;16.992;2023-04-27T11:55:53;101920.66;;;10.24;49.93
57050;BME280;42935;50.966;16.992;2023-04-27T11:59:20;101904.12;;;9.82;49.46
57050;BME280;42935;50.966;16.992;2023-04-27T12:03:15;101927.19;;;9.86;52.09
57050;BME280;42935;50.966;16.992;2023-04-27T12:07:05;101935.17;;;9.64;53.64
57050;BME280;42935;50.966;16.992;2023-04-27T12:10:26;101909.66;;;9.41;54.63
57050;BME280;42935;50.966;16.992;2023-04-27T12:13:41;101912.12;;;9.66;55.45
57050;BME280;42935;50.966;16.992;2023-04-27T12:17:30;101920.39;;;9.62;55.38
57050;BME280;42935;50.966;16.992;2023-04-27T12:21:21;101929.29;;;9.51;56.15
57050;BME280;42935;50.966;16.992;2023-04-27T12:25:11;101930.30;;;9.72;55.95
57050;BME280;42935;50.966;16.992;2023-04-27T12:28:29;101914.96;;;9.80;55.18
57050;BME280;42935;50.966;16.992;2023-04-27T12:31:48;101926.68;;;10.27;55.97
57050;BME280;42935;50.966;16.992;2023-04-27T12:35:09;101916.53;;;11.09;55.32
57050;BME280;42935;50.966;16.992;2023-04-27T12:38:29;101909.03;;;12.27;53.73
57050;BME280;42935;50.966;16.992;2023-04-27T12:41:49;101913.77;;;12.06;52.27
57050;BME280;42935;50.966;16.992;2023-04-27T12:45:10;101918.96;;;11.85;53.38
57050;BME280;42935;50.966;16.992;2023-04-27T12:48:30;101924.42;;;11.76;52.84
57050;BME280;42935;50.966;16.992;2023-04-27T12:52:20;101923.86;;;11.65;52.61
57050;BME280;42935;50.966;16.992;2023-04-27T12:55:45;101917.20;;;11.82;52.51
57050;BME280;42935;50.966;16.992;2023-04-27T12:59:05;101917.53;;;12.11;52.42
57050;BME280;42935;50.966;16.992;2023-04-27T13:02:25;101898.77;;;11.77;51.03
57050;BME280;42935;50.966;16.992;2023-04-27T13:05:43;101921.27;;;11.56;51.79
57050;BME280;42935;50.966;16.992;2023-04-27T13:09:01;101914.48;;;11.16;50.46
57050;BME280;42935;50.966;16.992;2023-04-27T13:12:21;101920.66;;;11.66;49.96
57050;BME280;42935;50.966;16.992;2023-04-27T13:15:38;101915.19;;;12.49;48.66
57050;BME280;42935;50.966;16.992;2023-04-27T13:18:58;101894.26;;;12.84;47.74
57050;BME280;42935;50.966;16.992;2023-04-27T13:22:16;101893.71;;;12.85;47.48
57050;BME280;42935;50.966;16.992;2023-04-27T13:25:37;101904.41;;;14.17;47.41
57050;BME280;42935;50.966;16.992;2023-04-27T13:28:57;101908.34;;;12.96;47.23
57050;BME280;42935;50.966;16.992;2023-04-27T13:32:18;101910.55;;;13.76;45.61
57050;BME280;42935;50.966;16.992;2023-04-27T13:36:05;101865.10;;;13.02;44.60
57050;BME280;42935;50.966;16.992;2023-04-27T13:39:25;101901.36;;;13.61;43.94
57050;BME280;42935;50.966;16.992;2023-04-27T13:42:45;101899.17;;;13.15;43.75
57050;BME280;42935;50.966;16.992;2023-04-27T13:46:04;101907.05;;;12.20;44.49
57050;BME280;42935;50.966;16.992;2023-04-27T13:49:56;101909.75;;;12.39;45.99
57050;BME280;42935;50.966;16.992;2023-04-27T13:53:16;101908.77;;;12.45;45.41
57050;BME280;42935;50.966;16.992;2023-04-27T13:56:34;101915.40;;;13.15;45.53
57050;BME280;42935;50.966;16.992;2023-04-27T13:59:56;101922.09;;;12.37;44.56
57050;BME280;42935;50.966;16.992;2023-04-27T14:03:19;101908.75;;;12.18;44.86
57050;BME280;42935;50.966;16.992;2023-04-27T14:06:40;101918.25;;;12.45;45.27
57050;BME280;42935;50.966;16.992;2023-04-27T14:10:01;101923.67;;;12.04;45.22
57050;BME280;42935;50.966;16.992;2023-04-27T14:13:22;101916.83;;;11.82;45.50
57050;BME280;42935;50.966;16.992;2023-04-27T14:16:42;101917.38;;;13.49;47.71
57050;BME280;42935;50.966;16.992;2023-04-27T14:20:05;101906.47;;;12.52;45.84
57050;BME280;42935;50.966;16.992;2023-04-27T14:23:25;101911.91;;;11.48;46.61
57050;BME280;42935;50.966;16.992;2023-04-27T14:26:43;101906.54;;;11.23;50.29
57050;BME280;42935;50.966;16.992;2023-04-27T14:30:10;101910.11;;;12.23;49.66
57050;BME280;42935;50.966;16.992;2023-04-27T14:33:36;101916.45;;;13.88;49.05
57050;BME280;42935;50.966;16.992;2023-04-27T14:37:02;101923.27;;;13.64;47.66
57050;BME280;42935;50.966;16.992;2023-04-27T14:40:20;101923.26;;;13.07;49.10
57050;BME280;42935;50.966;16.992;2023-04-27T14:43:43;101921.67;;;13.71;48.39
57050;BME280;42935;50.966;16.992;2023-04-27T14:47:06;101916.51;;;14.17;48.83
57050;BME280;42935;50.966;16.992;2023-04-27T14:50:27;101915.09;;;13.92;48.40
57050;BME280;42935;50.966;16.992;2023-04-27T14:53:45;101908.06;;;14.72;48.25
57050;BME280;42935;50.966;16.992;2023-04-27T14:57:05;101907.73;;;15.59;45.81
57050;BME280;42935;50.966;16.992;2023-04-27T15:00:25;101901.09;;;15.70;45.50
57050;BME280;42935;50.966;16.992;2023-04-27T15:03:47;101913.34;;;14.19;46.49
57050;BME280;42935;50.966;16.992;2023-04-27T15:07:38;101920.90;;;13.32;46.41
57050;BME280;42935;50.966;16.992;2023-04-27T15:11:28;101912.52;;;12.89;47.49
57050;BME280;42935;50.966;16.992;2023-04-27T15:14:48;101920.72;;;12.18;48.30
57050;BME280;42935;50.966;16.992;2023-04-27T15:18:12;101916.99;;;12.04;48.78
57050;BME280;42935;50.966;16.992;2023-04-27T15:21:34;101918.54;;;12.26;49.20
57050;BME280;42935;50.966;16.992;2023-04-27T15:25:24;101911.90;;;12.65;50.27
57050;BME280;42935;50.966;16.992;2023-04-27T15:28:40;101921.89;;;12.01;49.00
57050;BME280;42935;50.966;16.992;2023-04-27T15:32:06;101923.59;;;12.50;49.30
57050;BME280;42935;50.966;16.992;2023-04-27T15:35:26;101919.52;;;11.97;49.58
57050;BME280;42935;50.966;16.992;2023-04-27T15:38:46;101914.59;;;11.90;49.70
57050;BME280;42935;50.966;16.992;2023-04-27T15:42:09;101922.34;;;12.25;49.68
57050;BME280;42935;50.966;16.992;2023-04-27T15:45:29;101919.90;;;12.46;50.10
57050;BME280;42935;50.966;16.992;2023-04-27T15:48:47;101919.20;;;12.30;48.76
57050;BME280;42935;50.966;16.992;2023-04-27T15:52:07;101919.29;;;11.39;50.23
57050;BME280;42935;50.966;16.992;2023-04-27T15:55:29;101879.56;;;11.37;49.83
57050;BME280;42935;50.966;16.992;2023-04-27T15:58:50;101910.05;;;11.78;50.96
57050;BME280;42935;50.966;16.992;2023-04-27T16:02:10;101914.98;;;13.13;49.66
57050;BME280;42935;50.966;16.992;2023-04-27T16:05:34;101908.46;;;13.07;48.08
57050;BME280;42935;50.966;16.992;2023-04-27T16:08:54;101907.16;;;12.83;49.28
57050;BME280;42935;50.966;16.992;2023-04-27T16:12:44;101912.52;;;12.44;48.99
57050;BME280;42935;50.966;16.992;2023-04-27T16:16:06;101907.48;;;12.63;48.92
57050;BME280;42935;50.966;16.992;2023-04-27T16:20:02;101908.84;;;12.38;49.59
57050;BME280;42935;50.966;16.992;2023-04-27T16:23:25;101913.55;;;12.19;49.42
57050;BME280;42935;50.966;16.992;2023-04-27T16:26:45;101913.05;;;11.92;51.35
57050;BME280;42935;50.966;16.992;2023-04-27T16:30:06;101903.56;;;11.95;51.02
57050;BME280;42935;50.966;16.992;2023-04-27T16:33:27;101911.54;;;12.14;49.53
57050;BME280;42935;50.966;16.992;2023-04-27T16:36:50;101887.59;;;11.69;50.03
57050;BME280;42935;50.966;16.992;2023-04-27T16:40:10;101916.16;;;11.49;50.38
57050;BME280;42935;50.966;16.992;2023-04-27T16:44:07;101918.28;;;11.16;50.43
57050;BME280;42935;50.966;16.992;2023-04-27T16:47:28;101921.68;;;11.01;51.26
57050;BME280;42935;50.966;16.992;2023-04-27T16:50:49;101912.78;;;10.70;51.67
57050;BME280;42935;50.966;16.992;2023-04-27T16:54:16;101925.09;;;11.04;51.83
57050;BME280;42935;50.966;16.992;2023-04-27T16:57:38;101917.84;;;11.02;52.01
57050;BME280;42935;50.966;16.992;2023-04-27T17:00:59;101925.52;;;11.20;51.86
57050;BME280;42935;50.966;16.992;2023-04-27T17:04:19;101926.89;;;11.23;51.62
57050;BME280;42935;50.966;16.992;2023-04-27T17:07:39;101928.63;;;10.99;52.30
57050;BME280;42935;50.966;16.992;2023-04-27T17:11:10;101931.03;;;11.14;53.02
57050;BME280;42935;50.966;16.992;2023-04-27T17:14:29;101928.83;;;11.46;53.65
57050;BME280;42935;50.966;16.992;2023-04-27T17:17:54;101927.40;;;11.57;52.95
57050;BME280;42935;50.966;16.992;2023-04-27T17:21:22;101928.10;;;11.61;53.05
57050;BME280;42935;50.966;16.992;2023-04-27T17:25:17;101916.89;;;11.89;52.58
57050;BME280;42935;50.966;16.992;2023-04-27T17:28:36;101914.63;;;11.60;52.25
57050;BME280;42935;50.966;16.992;2023-04-27T17:32:00;101920.42;;;12.19;52.46
57050;BME280;42935;50.966;16.992;2023-04-27T17:35:26;101919.03;;;12.22;51.33
57050;BME280;42935;50.966;16.992;2023-04-27T17:38:50;101908.54;;;11.93;51.59
57050;BME280;42935;50.966;16.992;2023-04-27T17:42:15;101917.98;;;11.47;52.22
57050;BME280;42935;50.966;16.992;2023-04-27T17:46:08;101916.38;;;11.51;52.23
57050;BME280;42935;50.966;16.992;2023-04-27T17:49:32;101915.63;;;11.50;52.29
57050;BME280;42935;50.966;16.992;2023-04-27T17:52:48;101912.70;;;11.38;52.39
57050;BME280;42935;50.966;16.992;2023-04-27T17:56:13;101906.55;;;11.22;52.40
57050;BME280;42935;50.966;16.992;2023-04-27T17:59:29;101919.28;;;11.09;52.84
57050;BME280;42935;50.966;16.992;2023-04-27T18:02:49;101912.72;;;10.76;53.75